PWSweather.com
Personal Weather Stations
Station Observations

BunburyAU

Lat: -33.378333, Lon: 115.651667

Elevation: 95

Station Type: Fine Offset WH2081

http://www.sedgleymanor.com/wx/index.htm

Latest ConditionsUpdated 4:30:01 PM GMT+08:08 Monday, Aug 31, 2015
Currently Today's Max Today's Min Today's Average
Temperature 59.0°F15.0°C 65.5°F18.6°C 45.1°F7.3°C 53.7°F12.1°C
Dew Point 47.7°F8.7°C 56.5°F13.6°C 44.3°F6.8°C 48.8°F9.3°C
Winds 6.2 mph SSW10.0 kmh SSW 7.2 mph SW11.6 kmh SW - 2.8 mph 4.5 kmh
Wind Gusts 14.5 mph23.3 kmh 20.6 mph33.2 kmh - -
Humidity 66% 100% 55% 85%
Pressure 30.02 in1016.6 mb 30.14 in1020.7 mb 29.97 in1014.9 mb -
Precipitation - 0.30 in7.6 mm - -
Hour Temp Dew Point Humidity Winds Wind Gusts Pressure Precip Precip Rate Daily Precip Total
04:30 PM 59.0°F15.0°C 47.7°F8.7°C 66% 6.2 mph SSW10.0 kmh SSW 14.5 mph23.3 kmh 30.02 in1016.6 mb 0.01 in0.3 mm 0.00 in0.0 mm 0.30 in7.6 mm
04:15 PM 58.6°F14.8°C 46.5°F8.1°C 64% 4.3 mph SW6.9 kmh SW 12.1 mph19.5 kmh 30.02 in1016.6 mb 0.01 in0.3 mm 0.00 in0.0 mm 0.30 in7.6 mm
04:00 PM 59.9°F15.5°C 47.3°F8.5°C 63% 3.7 mph S6.0 kmh S 9.8 mph15.8 kmh 30.01 in1016.3 mb 0.01 in0.3 mm 0.00 in0.0 mm 0.30 in7.6 mm
03:45 PM 59.0°F15.0°C 50.0°F10.0°C 72% 4.2 mph SSW6.8 kmh SSW 10.7 mph17.2 kmh 30.01 in1016.3 mb 0.01 in0.3 mm 0.04 in1.0 mm 0.30 in7.6 mm
03:30 PM 61.7°F16.5°C 49.0°F9.4°C 63% 3.5 mph SE5.6 kmh SE 12.1 mph19.5 kmh 30.01 in1016.3 mb 0.00 in0.0 mm 0.00 in0.0 mm 0.28 in7.1 mm
03:15 PM 62.4°F16.9°C 50.5°F10.3°C 65% 3.0 mph S4.8 kmh S 13.0 mph20.9 kmh 30.00 in1015.9 mb 0.06 in1.5 mm 0.00 in0.0 mm 0.28 in7.1 mm
03:00 PM 60.3°F15.7°C 48.0°F8.9°C 64% 4.7 mph SSW7.6 kmh SSW 13.0 mph20.9 kmh 30.00 in1015.9 mb 0.07 in1.8 mm 0.00 in0.0 mm 0.28 in7.1 mm
02:45 PM 59.0°F15.0°C 51.5°F10.8°C 76% 3.1 mph SSW5.0 kmh SSW 9.8 mph15.8 kmh 29.99 in1015.6 mb 0.07 in1.8 mm 0.00 in0.0 mm 0.28 in7.1 mm
02:30 PM 53.1°F11.7°C 48.7°F9.3°C 85% 3.8 mph SW6.1 kmh SW 12.1 mph19.5 kmh 29.99 in1015.6 mb 0.07 in1.8 mm 0.24 in6.1 mm 0.28 in7.1 mm
02:15 PM 61.7°F16.5°C 47.2°F8.4°C 59% 3.8 mph SW6.1 kmh SW 14.5 mph23.3 kmh 30.01 in1016.3 mb 0.01 in0.3 mm 0.04 in1.0 mm 0.22 in5.6 mm
02:00 PM 64.4°F18.0°C 47.9°F8.8°C 55% 3.2 mph SW5.1 kmh SW 9.8 mph15.8 kmh 29.97 in1014.9 mb 0.00 in0.0 mm 0.00 in0.0 mm 0.21 in5.3 mm
01:45 PM 65.5°F18.6°C 50.3°F10.2°C 58% 2.6 mph SW4.2 kmh SW 7.6 mph12.2 kmh 29.99 in1015.6 mb 0.00 in0.0 mm 0.00 in0.0 mm 0.21 in5.3 mm
01:30 PM 62.1°F16.7°C 51.8°F11.0°C 69% 2.1 mph SSE3.4 kmh SSE 9.2 mph14.8 kmh 29.98 in1015.2 mb 0.00 in0.0 mm 0.00 in0.0 mm 0.21 in5.3 mm
01:15 PM 59.4°F15.2°C 50.3°F10.2°C 72% 5.1 mph SSE8.2 kmh SSE 13.0 mph20.9 kmh 29.99 in1015.6 mb 0.00 in0.0 mm 0.00 in0.0 mm 0.21 in5.3 mm
01:00 PM 57.7°F14.3°C 49.5°F9.7°C 74% 5.6 mph SSW9.0 kmh SSW 13.0 mph20.9 kmh 29.99 in1015.6 mb 0.00 in0.0 mm 0.00 in0.0 mm 0.21 in5.3 mm
12:45 PM 60.3°F15.7°C 51.2°F10.7°C 72% 3.6 mph S5.8 kmh S 9.2 mph14.8 kmh 30.00 in1015.9 mb 0.00 in0.0 mm 0.00 in0.0 mm 0.21 in5.3 mm
12:30 PM 58.3°F14.6°C 52.1°F11.2°C 80% 3.8 mph SE6.1 kmh SE 13.0 mph20.9 kmh 30.01 in1016.3 mb 0.02 in0.5 mm 0.00 in0.0 mm 0.21 in5.3 mm
12:15 PM 57.0°F13.9°C 52.9°F11.6°C 86% 3.6 mph SW5.8 kmh SW 9.8 mph15.8 kmh 30.02 in1016.6 mb 0.04 in1.0 mm 0.00 in0.0 mm 0.21 in5.3 mm
12:00 PM 56.5°F13.6°C 53.9°F12.2°C 91% 4.1 mph S6.6 kmh S 13.0 mph20.9 kmh 30.01 in1016.3 mb 0.04 in1.0 mm 0.00 in0.0 mm 0.21 in5.3 mm
11:45 AM 54.7°F12.6°C 51.8°F11.0°C 90% 5.2 mph SW8.4 kmh SW 15.2 mph24.5 kmh 30.01 in1016.3 mb 0.04 in1.0 mm 0.00 in0.0 mm 0.21 in5.3 mm
11:30 AM 54.7°F12.6°C 51.5°F10.8°C 89% 7.2 mph SW11.6 kmh SW 20.6 mph33.2 kmh 30.01 in1016.3 mb 0.04 in1.0 mm 0.08 in2.0 mm 0.19 in4.8 mm
11:15 AM 55.4°F13.0°C 51.0°F10.6°C 85% 5.1 mph WSW8.2 kmh WSW 15.9 mph25.6 kmh 30.00 in1015.9 mb 0.02 in0.5 mm 0.00 in0.0 mm 0.18 in4.6 mm
11:00 AM 55.4°F13.0°C 50.3°F10.2°C 83% 3.7 mph WSW6.0 kmh WSW 9.2 mph14.8 kmh 30.01 in1016.3 mb 0.04 in1.0 mm 0.03 in0.8 mm 0.18 in4.6 mm
10:45 AM 65.3°F18.5°C 51.5°F10.8°C 61% 3.9 mph S6.3 kmh S 15.2 mph24.5 kmh 30.01 in1016.3 mb 0.02 in0.5 mm 0.00 in0.0 mm 0.17 in4.3 mm
10:30 AM 62.2°F16.8°C 52.3°F11.3°C 70% 6.5 mph W10.5 kmh W 17.4 mph28.0 kmh 30.00 in1015.9 mb 0.05 in1.3 mm 0.00 in0.0 mm 0.15 in3.8 mm
10:15 AM 61.3°F16.3°C 51.5°F10.8°C 70% 6.0 mph W9.7 kmh W 14.5 mph23.3 kmh 30.01 in1016.3 mb 0.07 in1.8 mm 0.04 in1.0 mm 0.15 in3.8 mm
10:00 AM 60.8°F16.0°C 53.9°F12.2°C 78% 4.1 mph W6.6 kmh W 15.2 mph24.5 kmh 30.01 in1016.3 mb 0.06 in1.5 mm 0.00 in0.0 mm 0.14 in3.6 mm
09:45 AM 59.4°F15.2°C 54.2°F12.3°C 83% 4.1 mph NW6.6 kmh NW 9.8 mph15.8 kmh 30.02 in1016.6 mb 0.06 in1.5 mm 0.08 in2.0 mm 0.14 in3.6 mm
09:30 AM 60.3°F15.7°C 52.7°F11.5°C 76% 3.8 mph NNW6.1 kmh NNW 11.4 mph18.3 kmh 30.03 in1016.9 mb 0.04 in1.0 mm 0.08 in2.0 mm 0.11 in2.8 mm
09:15 AM 57.9°F14.4°C 52.8°F11.6°C 83% 2.3 mph NW3.7 kmh NW 8.3 mph13.4 kmh 30.03 in1016.9 mb 0.02 in0.5 mm 0.00 in0.0 mm 0.08 in2.0 mm
09:00 AM 55.2°F12.9°C 49.5°F9.7°C 81% 2.8 mph N4.5 kmh N 9.8 mph15.8 kmh 30.04 in1017.3 mb 0.02 in0.5 mm 0.00 in0.0 mm 0.08 in2.0 mm
08:45 AM 59.0°F15.0°C 52.9°F11.6°C 80% 1.2 mph NW1.9 kmh NW 4.5 mph7.2 kmh 30.04 in1017.3 mb 0.02 in0.5 mm 0.04 in1.0 mm 0.08 in2.0 mm
08:30 AM 56.7°F13.7°C 50.2°F10.1°C 79% 4.0 mph NNE6.4 kmh NNE 14.5 mph23.3 kmh 30.04 in1017.3 mb 0.01 in0.3 mm 0.04 in1.0 mm 0.07 in1.8 mm
08:15 AM 58.6°F14.8°C 51.1°F10.6°C 76% 1.3 mph NW2.1 kmh NW 5.4 mph8.7 kmh 30.04 in1017.3 mb 0.00 in0.0 mm 0.00 in0.0 mm 0.06 in1.5 mm
08:00 AM 56.5°F13.6°C 51.1°F10.6°C 82% 0.7 mph NW1.1 kmh NW 3.8 mph6.1 kmh 30.04 in1017.3 mb 0.00 in0.0 mm 0.00 in0.0 mm 0.06 in1.5 mm
07:45 AM 55.2°F12.9°C 47.8°F8.8°C 76% 3.6 mph N5.8 kmh N 11.4 mph18.3 kmh 30.05 in1017.6 mb 0.00 in0.0 mm 0.00 in0.0 mm 0.06 in1.5 mm
07:30 AM 58.5°F14.7°C 56.5°F13.6°C 93% 1.7 mph NW2.7 kmh NW 6.0 mph9.7 kmh 30.04 in1017.3 mb 0.00 in0.0 mm 0.00 in0.0 mm 0.06 in1.5 mm
07:15 AM 53.8°F12.1°C 53.0°F11.7°C 97% 0.4 mph NE0.6 kmh NE 2.2 mph3.5 kmh 30.04 in1017.3 mb 0.00 in0.0 mm 0.00 in0.0 mm 0.06 in1.5 mm
07:00 AM 48.4°F9.1°C 48.1°F8.9°C 99% 0.6 mph WSW1.0 kmh WSW 3.1 mph5.0 kmh 30.04 in1017.3 mb 0.00 in0.0 mm 0.00 in0.0 mm 0.06 in1.5 mm
06:45 AM 47.7°F8.7°C 47.4°F8.6°C 99% 0.4 mph S0.6 kmh S 3.1 mph5.0 kmh 30.04 in1017.3 mb 0.00 in0.0 mm 0.00 in0.0 mm 0.06 in1.5 mm
06:30 AM 45.5°F7.5°C 44.7°F7.1°C 97% 0.6 mph NE1.0 kmh NE 4.5 mph7.2 kmh 30.05 in1017.6 mb 0.00 in0.0 mm 0.00 in0.0 mm 0.06 in1.5 mm
06:15 AM 45.3°F7.4°C 44.5°F6.9°C 97% 0.3 mph ENE0.5 kmh ENE 2.2 mph3.5 kmh 30.05 in1017.6 mb 0.00 in0.0 mm 0.00 in0.0 mm 0.06 in1.5 mm
06:00 AM 45.1°F7.3°C 44.3°F6.8°C 97% 0.5 mph NNE0.8 kmh NNE 2.2 mph3.5 kmh 30.05 in1017.6 mb 0.00 in0.0 mm 0.00 in0.0 mm 0.06 in1.5 mm
05:45 AM 45.1°F7.3°C 44.3°F6.8°C 97% 1.1 mph NE1.8 kmh NE 3.8 mph6.1 kmh 30.05 in1017.6 mb 0.00 in0.0 mm 0.00 in0.0 mm 0.06 in1.5 mm
05:30 AM 45.9°F7.7°C 45.1°F7.3°C 97% 1.8 mph ENE2.9 kmh ENE 4.5 mph7.2 kmh 30.05 in1017.6 mb 0.00 in0.0 mm 0.00 in0.0 mm 0.06 in1.5 mm
05:15 AM 46.2°F7.9°C 45.4°F7.4°C 97% 1.9 mph NNE3.1 kmh NNE 7.6 mph12.2 kmh 30.06 in1017.9 mb 0.00 in0.0 mm 0.00 in0.0 mm 0.06 in1.5 mm
05:00 AM 46.2°F7.9°C 45.4°F7.4°C 97% 2.3 mph NE3.7 kmh NE 5.4 mph8.7 kmh 30.06 in1017.9 mb 0.00 in0.0 mm 0.00 in0.0 mm 0.06 in1.5 mm
04:45 AM 46.2°F7.9°C 45.4°F7.4°C 97% 2.2 mph NE3.5 kmh NE 4.5 mph7.2 kmh 30.07 in1018.3 mb 0.00 in0.0 mm 0.00 in0.0 mm 0.06 in1.5 mm
04:30 AM 46.4°F8.0°C 46.1°F7.8°C 99% 2.4 mph NE3.9 kmh NE 5.4 mph8.7 kmh 30.07 in1018.3 mb 0.00 in0.0 mm 0.00 in0.0 mm 0.06 in1.5 mm
04:15 AM 46.4°F8.0°C 46.1°F7.8°C 99% 1.5 mph NNE2.4 kmh NNE 3.8 mph6.1 kmh 30.07 in1018.3 mb 0.00 in0.0 mm 0.00 in0.0 mm 0.06 in1.5 mm
04:00 AM 46.6°F8.1°C 46.3°F7.9°C 99% 1.5 mph NE2.4 kmh NE 3.8 mph6.1 kmh 30.07 in1018.3 mb 0.00 in0.0 mm 0.00 in0.0 mm 0.06 in1.5 mm
03:45 AM 46.6°F8.1°C 46.3°F7.9°C 99% 2.3 mph ENE3.7 kmh ENE 5.4 mph8.7 kmh 30.08 in1018.6 mb 0.01 in0.3 mm 0.00 in0.0 mm 0.06 in1.5 mm
03:30 AM 46.8°F8.2°C 46.5°F8.1°C 99% 0.6 mph NE1.0 kmh NE 3.1 mph5.0 kmh 30.08 in1018.6 mb 0.01 in0.3 mm 0.00 in0.0 mm 0.06 in1.5 mm
03:15 AM 46.9°F8.3°C 46.7°F8.2°C 99% 1.2 mph NE1.9 kmh NE 3.8 mph6.1 kmh 30.09 in1019.0 mb 0.01 in0.3 mm 0.00 in0.0 mm 0.06 in1.5 mm
03:00 AM 46.9°F8.3°C 46.7°F8.2°C 99% 2.8 mph N4.5 kmh N 5.4 mph8.7 kmh 30.10 in1019.3 mb 0.01 in0.3 mm 0.01 in0.3 mm 0.06 in1.5 mm
02:45 AM 46.8°F8.2°C 46.5°F8.1°C 99% 2.4 mph N3.9 kmh N 4.5 mph7.2 kmh 30.09 in1019.0 mb 0.00 in0.0 mm 0.00 in0.0 mm 0.05 in1.3 mm
02:30 AM 46.2°F7.9°C 45.4°F7.4°C 97% 1.7 mph NE2.7 kmh NE 5.4 mph8.7 kmh 30.10 in1019.3 mb 0.00 in0.0 mm 0.00 in0.0 mm 0.05 in1.3 mm
02:15 AM 46.4°F8.0°C 46.1°F7.8°C 99% 3.4 mph NE5.5 kmh NE 6.0 mph9.7 kmh 30.11 in1019.6 mb 0.00 in0.0 mm 0.00 in0.0 mm 0.05 in1.3 mm
02:00 AM 47.1°F8.4°C 46.9°F8.3°C 99% 2.8 mph NNE4.5 kmh NNE 5.4 mph8.7 kmh 30.11 in1019.6 mb 0.00 in0.0 mm 0.00 in0.0 mm 0.05 in1.3 mm
01:45 AM 47.7°F8.7°C 47.4°F8.6°C 99% 3.6 mph N5.8 kmh N 6.9 mph11.1 kmh 30.11 in1019.6 mb 0.00 in0.0 mm 0.00 in0.0 mm 0.05 in1.3 mm
01:30 AM 47.7°F8.7°C 47.4°F8.6°C 99% 0.3 mph NNE0.5 kmh NNE 6.0 mph9.7 kmh 30.11 in1019.6 mb 0.02 in0.5 mm 0.00 in0.0 mm 0.05 in1.3 mm
01:15 AM 47.7°F8.7°C 47.4°F8.6°C 99% 0.6 mph ESE1.0 kmh ESE 6.0 mph9.7 kmh 30.11 in1019.6 mb 0.04 in1.0 mm 0.00 in0.0 mm 0.05 in1.3 mm
01:00 AM 47.8°F8.8°C 47.8°F8.8°C 100% 2.4 mph E3.9 kmh E 6.0 mph9.7 kmh 30.12 in1020.0 mb 0.05 in1.3 mm 0.00 in0.0 mm 0.05 in1.3 mm
12:45 AM 47.8°F8.8°C 46.8°F8.2°C 96% 0.8 mph SE1.3 kmh SE 3.1 mph5.0 kmh 30.14 in1020.7 mb 0.05 in1.3 mm 0.12 in3.0 mm 0.05 in1.3 mm
12:30 AM 48.2°F9.0°C 46.6°F8.1°C 94% 1.3 mph SW2.1 kmh SW 3.8 mph6.1 kmh 30.14 in1020.7 mb 0.02 in0.5 mm 0.04 in1.0 mm 0.02 in0.5 mm
12:15 AM 48.4°F9.1°C 46.5°F8.1°C 93% 0.3 mph SW0.5 kmh SW 2.2 mph3.5 kmh 30.14 in1020.7 mb 0.01 in0.3 mm 0.04 in1.0 mm 0.01 in0.3 mm
12:00 AM 48.6°F9.2°C 46.3°F7.9°C 92% 0.4 mph WSW0.6 kmh WSW 3.8 mph6.1 kmh 30.14 in1020.7 mb 0.00 in0.0 mm 0.00 in0.0 mm 0.00 in0.0 mm